createdAt,value
2023-01-30T00:02:11.920Z,30.55
2023-01-30T00:04:34.593Z,28.42
2023-01-30T00:06:57.236Z,30.80
2023-01-30T00:09:20.395Z,27.70
2023-01-30T00:11:43.117Z,30.30
2023-01-30T00:14:05.782Z,29.38
2023-01-30T00:16:28.536Z,29.55
2023-01-30T00:18:51.267Z,29.13
2023-01-30T00:21:15.532Z,31.03
2023-01-30T00:23:38.752Z,30.38
2023-01-30T00:26:01.806Z,28.13
2023-01-30T00:28:24.698Z,31.23
2023-01-30T00:30:51.687Z,29.80
2023-01-30T00:33:14.319Z,31.43
2023-01-30T00:35:37.012Z,28.42
2023-01-30T00:38:00.021Z,32.08
2023-01-30T00:40:22.688Z,28.92
2023-01-30T00:43:03.616Z,29.70
2023-01-30T00:45:44.467Z,31.80
2023-01-30T00:48:07.788Z,32.72
2023-01-30T00:50:42.579Z,32.33
2023-01-30T00:53:08.873Z,29.10
2023-01-30T00:55:31.491Z,28.50
2023-01-30T00:57:58.064Z,28.20
2023-01-30T01:00:21.040Z,30.70
2023-01-30T01:02:43.959Z,31.88
2023-01-30T01:05:06.971Z,28.15
2023-01-30T01:07:29.732Z,30.42
2023-01-30T01:09:52.353Z,27.13
2023-01-30T01:12:14.966Z,29.30
2023-01-30T01:14:38.372Z,27.55
2023-01-30T01:17:01.345Z,27.45
2023-01-30T01:19:24.269Z,28.00
2023-01-30T01:21:46.928Z,28.40
2023-01-30T01:24:13.655Z,30.05
2023-01-30T01:26:36.497Z,28.98
2023-01-30T01:28:59.629Z,27.83
2023-01-30T01:31:24.144Z,28.10
2023-01-30T01:33:46.976Z,26.47
2023-01-30T01:36:09.739Z,26.67
2023-01-30T01:38:32.938Z,26.75
2023-01-30T01:41:10.077Z,27.50
2023-01-30T01:43:36.306Z,24.80
2023-01-30T01:46:28.173Z,27.27
2023-01-30T01:48:56.609Z,26.25
2023-01-30T01:51:26.842Z,25.17
2023-01-30T01:53:56.659Z,27.63
2023-01-30T01:56:20.445Z,25.42
2023-01-30T01:58:51.367Z,28.03
2023-01-30T02:01:14.359Z,24.00
2023-01-30T02:03:42.594Z,26.00
2023-01-30T02:06:11.543Z,25.75
2023-01-30T02:08:43.887Z,27.05
2023-01-30T02:11:14.569Z,23.60
2023-01-30T02:13:37.605Z,24.85
2023-01-30T02:16:01.935Z,29.50
2023-01-30T02:18:25.383Z,26.58
2023-01-30T02:20:56.574Z,27.55
2023-01-30T02:23:42.602Z,24.57
2023-01-30T02:26:17.561Z,27.40
2023-01-30T02:28:40.625Z,24.73
2023-01-30T02:31:16.692Z,24.27
2023-01-30T02:33:55.691Z,28.05
2023-01-30T02:36:36.901Z,27.30
2023-01-30T02:39:21.276Z,25.73
2023-01-30T02:41:56.440Z,27.70
2023-01-30T02:44:25.311Z,26.02
2023-01-30T02:46:57.725Z,21.98
2023-01-30T02:49:36.784Z,26.87
2023-01-30T02:52:03.589Z,24.45
2023-01-30T02:54:27.622Z,28.35
2023-01-30T02:56:53.074Z,29.00
2023-01-30T02:59:24.496Z,26.27
2023-01-30T03:02:17.019Z,24.57
2023-01-30T03:04:50.077Z,25.80
2023-01-30T03:07:15.713Z,24.88
2023-01-30T03:09:48.013Z,30.17
2023-01-30T03:12:31.368Z,27.45
2023-01-30T03:15:08.092Z,27.63
2023-01-30T03:17:32.962Z,27.85
2023-01-30T03:19:56.773Z,24.52
2023-01-30T03:22:20.741Z,27.45
2023-01-30T03:24:43.483Z,23.58
2023-01-30T03:27:10.534Z,24.00
2023-01-30T03:29:33.355Z,23.95
2023-01-30T03:31:55.945Z,27.17
2023-01-30T03:34:18.594Z,25.13
2023-01-30T03:36:41.433Z,27.23
2023-01-30T03:39:04.257Z,26.50
2023-01-30T03:41:27.434Z,28.30
2023-01-30T03:43:50.185Z,28.25
2023-01-30T03:46:13.004Z,28.00
2023-01-30T03:48:35.609Z,28.95
2023-01-30T03:50:58.200Z,24.83
2023-01-30T03:53:21.094Z,27.05
2023-01-30T03:55:45.564Z,24.17
2023-01-30T03:58:08.197Z,29.58
2023-01-30T04:00:31.342Z,29.58
2023-01-30T04:02:55.170Z,23.07
2023-01-30T04:05:18.812Z,29.67
2023-01-30T04:07:46.801Z,24.02
2023-01-30T04:10:10.000Z,26.17
2023-01-30T04:12:32.837Z,28.77
2023-01-30T04:14:56.333Z,28.13
2023-01-30T04:17:37.913Z,30.02
2023-01-30T04:20:20.468Z,27.73
2023-01-30T04:22:47.693Z,31.80
2023-01-30T04:25:10.194Z,29.02
2023-01-30T04:27:33.102Z,31.93
2023-01-30T04:30:21.756Z,29.08
2023-01-30T04:32:48.555Z,30.63
2023-01-30T04:35:11.267Z,28.70
2023-01-30T04:37:34.906Z,30.70
2023-01-30T04:39:57.844Z,28.60
2023-01-30T04:42:22.824Z,28.65
2023-01-30T04:45:05.906Z,28.63
2023-01-30T04:47:28.610Z,30.45
2023-01-30T04:49:51.178Z,29.10
2023-01-30T04:52:14.080Z,28.43
2023-01-30T04:54:36.825Z,32.47
2023-01-30T04:56:59.567Z,30.45
2023-01-30T04:59:22.269Z,30.55
2023-01-30T05:01:45.909Z,35.03
2023-01-30T05:04:10.405Z,32.30
2023-01-30T05:06:34.149Z,29.38
2023-01-30T05:08:57.247Z,36.00
2023-01-30T05:11:20.763Z,31.17
2023-01-30T05:13:44.105Z,31.50
2023-01-30T05:16:06.936Z,29.03
2023-01-30T05:18:29.588Z,27.73
2023-01-30T05:20:52.102Z,31.10
2023-01-30T05:23:14.730Z,33.30
2023-01-30T05:25:37.318Z,33.30
2023-01-30T05:28:00.716Z,31.37
2023-01-30T05:30:23.412Z,30.77
2023-01-30T05:32:46.017Z,27.05
2023-01-30T05:35:09.124Z,32.20
2023-01-30T05:37:31.749Z,33.97
2023-01-30T05:39:54.384Z,32.07
2023-01-30T05:42:17.269Z,32.83
2023-01-30T05:44:40.181Z,30.58
2023-01-30T05:47:02.883Z,27.75
2023-01-30T05:49:25.628Z,33.45
2023-01-30T05:51:50.543Z,31.10
2023-01-30T05:54:14.149Z,28.77
2023-01-30T05:56:36.775Z,27.60
2023-01-30T05:59:00.714Z,28.55
2023-01-30T06:01:23.681Z,30.85
2023-01-30T06:03:46.616Z,30.70
2023-01-30T06:06:12.024Z,32.60
2023-01-30T06:08:34.994Z,31.00
2023-01-30T06:11:06.073Z,30.48
2023-01-30T06:13:30.301Z,35.95
2023-01-30T06:15:53.232Z,28.30
2023-01-30T06:18:15.937Z,28.17
2023-01-30T06:20:38.859Z,31.77
2023-01-30T06:23:01.603Z,29.80
2023-01-30T06:25:24.266Z,30.40
2023-01-30T06:27:47.515Z,31.87
2023-01-30T06:30:10.968Z,34.15
2023-01-30T06:32:34.175Z,28.95
2023-01-30T06:34:56.731Z,32.25
2023-01-30T06:37:19.563Z,37.60
2023-01-30T06:39:42.434Z,31.27
2023-01-30T06:42:05.395Z,30.10
2023-01-30T06:44:28.163Z,32.08
2023-01-30T06:46:51.046Z,36.92
2023-01-30T06:49:13.907Z,44.42
2023-01-30T06:51:36.789Z,32.93
2023-01-30T06:53:59.820Z,33.33
2023-01-30T06:56:22.787Z,28.45
2023-01-30T06:58:45.747Z,31.35
2023-01-30T07:01:08.547Z,31.17
2023-01-30T07:03:31.134Z,34.70
2023-01-30T07:05:53.936Z,35.55
2023-01-30T07:08:17.209Z,32.33
2023-01-30T07:10:41.123Z,30.90
2023-01-30T07:13:04.377Z,32.17
2023-01-30T07:15:27.516Z,38.10
2023-01-30T07:17:50.352Z,31.15
2023-01-30T07:20:15.137Z,31.77
2023-01-30T07:22:37.824Z,33.45
2023-01-30T07:25:01.157Z,30.52
2023-01-30T07:27:23.904Z,31.60
2023-01-30T07:29:46.891Z,31.38
2023-01-30T07:32:15.854Z,32.10
2023-01-30T07:34:40.077Z,31.25
2023-01-30T07:37:03.006Z,29.40
2023-01-30T07:39:26.810Z,30.20
2023-01-30T07:41:50.730Z,34.60
2023-01-30T07:44:14.087Z,33.33
2023-01-30T07:46:37.092Z,31.75
2023-01-30T07:49:00.108Z,34.38
2023-01-30T07:51:22.841Z,31.13
2023-01-30T07:53:49.247Z,34.30
2023-01-30T07:56:18.436Z,36.70
2023-01-30T07:58:41.554Z,30.98
2023-01-30T08:01:04.672Z,31.70
2023-01-30T08:03:27.835Z,29.90
2023-01-30T08:05:50.697Z,29.50
2023-01-30T08:08:13.399Z,34.45
2023-01-30T08:10:36.245Z,31.02
2023-01-30T08:12:59.097Z,34.00
2023-01-30T08:15:22.928Z,32.57
2023-01-30T08:17:53.735Z,31.55
2023-01-30T08:20:18.176Z,30.60
2023-01-30T08:22:41.078Z,28.70
2023-01-30T08:25:04.051Z,31.45
2023-01-30T08:27:26.788Z,30.30
2023-01-30T08:29:49.460Z,28.42
2023-01-30T08:32:20.692Z,29.40
2023-01-30T08:34:43.684Z,32.25
2023-01-30T08:37:06.330Z,31.90
2023-01-30T08:39:29.048Z,31.33
2023-01-30T08:41:52.186Z,32.42
2023-01-30T08:44:15.346Z,29.13
2023-01-30T08:46:39.077Z,30.73
2023-01-30T08:49:02.155Z,28.92
2023-01-30T08:51:24.995Z,34.47
2023-01-30T08:53:47.786Z,35.20
2023-01-30T08:56:10.624Z,39.85
2023-01-30T08:58:33.605Z,29.70
2023-01-30T09:00:56.632Z,30.65
2023-01-30T09:03:20.503Z,30.10
2023-01-30T09:05:43.476Z,31.13
2023-01-30T09:08:06.420Z,32.40
2023-01-30T09:10:29.672Z,29.52
2023-01-30T09:12:52.457Z,29.33
2023-01-30T09:15:15.168Z,27.50
2023-01-30T09:17:38.506Z,31.55
2023-01-30T09:20:01.568Z,28.65
2023-01-30T09:22:24.272Z,28.85
2023-01-30T09:24:46.989Z,27.80
2023-01-30T09:27:09.515Z,28.77
2023-01-30T09:29:32.115Z,28.00
2023-01-30T09:31:59.191Z,28.92
2023-01-30T09:34:27.516Z,27.88
2023-01-30T09:36:50.149Z,29.55
2023-01-30T09:39:12.797Z,25.73
2023-01-30T09:41:58.919Z,28.38
2023-01-30T09:44:33.837Z,26.40
2023-01-30T09:47:23.996Z,28.85
2023-01-30T09:50:20.322Z,30.25
2023-01-30T09:53:16.843Z,30.27
2023-01-30T09:55:43.758Z,27.33
2023-01-30T09:58:08.272Z,31.38
2023-01-30T10:00:44.284Z,26.85
2023-01-30T10:03:17.238Z,29.55
2023-01-30T10:06:02.584Z,27.47
2023-01-30T10:08:52.738Z,26.90
2023-01-30T10:11:30.573Z,28.23
2023-01-30T10:14:08.924Z,28.88
2023-01-30T10:16:43.486Z,25.33
2023-01-30T10:19:36.487Z,23.03
2023-01-30T10:22:07.697Z,25.05
2023-01-30T10:24:36.241Z,23.60
2023-01-30T10:26:59.039Z,26.73
2023-01-30T10:29:31.617Z,27.17
2023-01-30T10:31:57.196Z,24.50
2023-01-30T10:34:25.502Z,24.90
2023-01-30T10:37:10.075Z,24.58
2023-01-30T10:40:06.727Z,24.70
2023-01-30T10:42:39.424Z,24.25
2023-01-30T10:45:15.189Z,22.83
2023-01-30T10:48:00.411Z,24.55
2023-01-30T10:50:44.085Z,24.15
2023-01-30T10:53:13.516Z,26.38
2023-01-30T10:55:45.121Z,24.52
2023-01-30T10:58:36.693Z,28.50
2023-01-30T11:01:12.231Z,27.52
2023-01-30T11:03:39.715Z,23.80
2023-01-30T11:06:24.083Z,23.33
2023-01-30T11:08:47.272Z,25.70
2023-01-30T11:11:27.925Z,22.87
2023-01-30T11:13:50.830Z,23.45
2023-01-30T11:16:13.922Z,23.77
2023-01-30T11:21:43.522Z,23.50
2023-01-30T11:24:17.134Z,25.77
2023-01-30T11:26:47.070Z,23.25
2023-01-30T11:29:31.983Z,22.10
2023-01-30T11:31:55.219Z,23.10
2023-01-30T11:34:20.561Z,22.85
2023-01-30T11:36:43.373Z,22.73
2023-01-30T11:39:18.804Z,24.73
2023-01-30T11:41:56.653Z,22.33
2023-01-30T11:44:26.632Z,23.73
2023-01-30T11:46:49.669Z,25.70
2023-01-30T11:49:45.151Z,22.83
2023-01-30T11:52:00.513Z,23.98
2023-01-30T11:54:34.620Z,23.90
2023-01-30T11:56:58.940Z,24.05
2023-01-30T11:59:34.691Z,21.92
2023-01-30T12:02:14.712Z,21.13
2023-01-30T12:04:37.920Z,22.17
2023-01-30T12:07:26.762Z,21.65
2023-01-30T12:09:50.637Z,27.98
2023-01-30T12:12:30.072Z,21.33
2023-01-30T12:14:54.645Z,19.90
2023-01-30T12:17:37.432Z,20.17
2023-01-30T12:20:14.256Z,22.15
2023-01-30T12:23:09.334Z,22.48
2023-01-30T12:25:40.289Z,20.08
2023-01-30T12:28:46.894Z,19.73
2023-01-30T12:31:20.218Z,20.27
2023-01-30T12:33:43.284Z,20.65
2023-01-30T12:36:08.704Z,20.73
2023-01-30T12:38:50.367Z,21.65
2023-01-30T12:41:16.505Z,19.60
2023-01-30T12:43:54.226Z,21.65
2023-01-30T12:46:50.087Z,19.10
2023-01-30T12:49:42.025Z,20.63
2023-01-30T12:52:17.221Z,20.05
2023-01-30T12:57:52.689Z,18.42
2023-01-30T13:00:39.518Z,21.88
2023-01-30T13:03:08.705Z,20.60
2023-01-30T13:05:44.913Z,20.50
2023-01-30T13:08:28.813Z,20.10
2023-01-30T13:11:03.336Z,16.95
2023-01-30T13:14:02.326Z,17.85
2023-01-30T13:16:33.393Z,18.05
2023-01-30T13:18:58.305Z,16.65
2023-01-30T13:21:34.649Z,19.53
2023-01-30T13:24:19.021Z,17.05
2023-01-30T13:26:44.167Z,19.02
2023-01-30T13:29:23.763Z,19.30
2023-01-30T13:31:53.988Z,18.52
2023-01-30T13:34:45.038Z,18.07
2023-01-30T13:37:12.231Z,20.25
2023-01-30T13:39:46.413Z,17.08
2023-01-30T13:42:30.136Z,18.55
2023-01-30T13:44:54.467Z,22.23
2023-01-30T13:47:33.609Z,17.77
2023-01-30T13:50:35.007Z,19.20
2023-01-30T13:53:13.394Z,20.85
2023-01-30T13:55:43.421Z,22.35
2023-01-30T13:59:02.057Z,20.15
2023-01-30T14:01:49.607Z,21.63
2023-01-30T14:04:30.673Z,19.42
2023-01-30T14:06:53.313Z,21.92
2023-01-30T14:09:26.208Z,21.73
2023-01-30T14:11:57.474Z,18.48
2023-01-30T14:14:23.209Z,22.10
2023-01-30T14:16:48.910Z,20.02
2023-01-30T14:19:33.375Z,21.55
2023-01-30T14:21:58.749Z,21.65
2023-01-30T14:24:26.307Z,23.38
2023-01-30T14:26:48.991Z,21.43
2023-01-30T14:29:51.934Z,19.98
2023-01-30T14:32:15.657Z,17.10
2023-01-30T14:35:00.978Z,22.83
2023-01-30T14:37:36.631Z,19.05
2023-01-30T14:40:00.739Z,20.80
2023-01-30T14:42:26.866Z,17.38
2023-01-30T14:45:15.746Z,20.48
2023-01-30T14:47:44.262Z,18.40
2023-01-30T14:50:22.918Z,18.70
2023-01-30T14:52:47.383Z,20.43
2023-01-30T14:55:21.811Z,20.42
2023-01-30T14:57:55.910Z,21.00
2023-01-30T15:00:21.016Z,20.65
2023-01-30T15:02:59.929Z,22.92
2023-01-30T15:05:30.519Z,20.53
2023-01-30T15:08:04.851Z,24.30
2023-01-30T15:10:46.164Z,21.00
2023-01-30T15:13:20.935Z,21.92
2023-01-30T15:15:52.221Z,22.63
2023-01-30T15:18:39.159Z,21.40
2023-01-30T15:21:16.839Z,19.20
2023-01-30T15:23:39.764Z,20.40
2023-01-30T15:26:11.139Z,22.70
2023-01-30T15:28:46.870Z,20.70
2023-01-30T15:31:14.591Z,22.67
2023-01-30T15:33:48.435Z,24.88
2023-01-30T15:36:32.154Z,20.50
2023-01-30T15:39:19.815Z,20.27
2023-01-30T15:41:43.360Z,22.13
2023-01-30T15:44:24.698Z,22.17
2023-01-30T15:47:05.702Z,21.58
2023-01-30T15:49:54.604Z,24.02
2023-01-30T15:52:19.759Z,22.73
2023-01-30T15:54:51.742Z,24.33
2023-01-30T15:57:29.346Z,23.40
2023-01-30T15:59:54.460Z,23.88
2023-01-30T16:02:32.490Z,23.90
2023-01-30T16:05:17.903Z,24.40
2023-01-30T16:07:40.627Z,26.38
2023-01-30T16:10:08.210Z,23.70
2023-01-30T16:12:32.069Z,23.85
2023-01-30T16:15:03.192Z,20.80
2023-01-30T16:17:31.949Z,21.48
2023-01-30T16:19:55.887Z,20.42
2023-01-30T16:22:20.622Z,21.40
2023-01-30T16:24:46.997Z,19.00
2023-01-30T16:27:19.028Z,20.20
2023-01-30T16:29:52.863Z,24.65
2023-01-30T16:32:15.608Z,21.23
2023-01-30T16:34:38.993Z,19.87
2023-01-30T16:37:18.871Z,19.83
2023-01-30T16:39:41.805Z,21.08
2023-01-30T16:42:26.952Z,20.83
2023-01-30T16:44:49.884Z,22.38
2023-01-30T16:47:25.064Z,23.23
2023-01-30T16:49:49.973Z,22.85
2023-01-30T16:52:41.268Z,21.05
2023-01-30T16:55:08.080Z,23.88
2023-01-30T16:57:43.279Z,22.52
2023-01-30T17:00:28.171Z,22.23
2023-01-30T17:02:55.810Z,23.20
2023-01-30T17:05:24.618Z,23.40
2023-01-30T17:07:49.603Z,24.67
2023-01-30T17:10:37.253Z,22.02
2023-01-30T17:13:00.247Z,21.90
2023-01-30T17:15:26.484Z,23.17
2023-01-30T17:17:49.059Z,27.27
2023-01-30T17:20:13.486Z,23.48
2023-01-30T17:22:38.336Z,26.17
2023-01-30T17:25:06.065Z,26.40
2023-01-30T17:27:30.499Z,26.80
2023-01-30T17:29:53.481Z,26.90
2023-01-30T17:32:16.276Z,26.98
2023-01-30T17:34:41.183Z,25.98
2023-01-30T17:37:04.284Z,26.90
2023-01-30T17:39:27.276Z,23.50
2023-01-30T17:41:50.653Z,26.27
2023-01-30T17:44:14.824Z,26.42
2023-01-30T17:46:45.679Z,26.10
2023-01-30T17:49:20.621Z,24.30
2023-01-30T17:51:44.422Z,27.33
2023-01-30T17:54:07.110Z,23.35
2023-01-30T17:56:38.401Z,23.92
2023-01-30T17:59:01.197Z,26.83
2023-01-30T18:01:23.704Z,23.93
2023-01-30T18:03:46.708Z,22.92
2023-01-30T18:06:12.863Z,25.98
2023-01-30T18:08:35.637Z,25.60
2023-01-30T18:10:58.470Z,24.00
2023-01-30T18:13:21.156Z,26.70
2023-01-30T18:15:43.719Z,22.90
2023-01-30T18:18:12.042Z,26.88
2023-01-30T18:20:35.103Z,23.98
2023-01-30T18:22:57.994Z,25.45
2023-01-30T18:25:21.297Z,21.63
2023-01-30T18:27:45.182Z,19.67
2023-01-30T18:30:08.939Z,16.27
2023-01-30T18:32:35.239Z,17.70
2023-01-30T18:34:58.185Z,18.05
2023-01-30T18:37:20.882Z,15.53
2023-01-30T18:39:43.724Z,20.10
2023-01-30T18:42:08.163Z,16.13
2023-01-30T18:44:30.998Z,16.35
2023-01-30T18:46:54.377Z,15.32
2023-01-30T18:49:17.164Z,18.43
2023-01-30T18:51:40.610Z,14.80
2023-01-30T18:54:03.582Z,15.45
2023-01-30T18:56:30.993Z,15.32
2023-01-30T18:58:56.321Z,11.60
2023-01-30T19:01:23.558Z,13.27
2023-01-30T19:03:46.902Z,12.20
2023-01-30T19:06:11.851Z,13.38
2023-01-30T19:08:34.886Z,18.02
2023-01-30T19:11:27.733Z,14.88
2023-01-30T19:13:50.941Z,11.13
2023-01-30T19:16:13.833Z,11.75
2023-01-30T19:18:36.713Z,11.95
2023-01-30T19:21:01.726Z,10.90
2023-01-30T19:23:27.535Z,10.18
2023-01-30T19:25:54.418Z,13.10
2023-01-30T19:28:17.067Z,10.30
2023-01-30T19:30:39.610Z,11.60
2023-01-30T19:33:02.530Z,13.27
2023-01-30T19:35:25.478Z,11.10
2023-01-30T19:37:48.521Z,11.43
2023-01-30T19:40:11.872Z,11.32
2023-01-30T19:42:35.335Z,10.90
2023-01-30T19:44:58.480Z,10.55
2023-01-30T19:47:23.423Z,14.10
2023-01-30T19:49:46.511Z,10.83
2023-01-30T19:52:09.179Z,9.98
2023-01-30T19:54:32.750Z,7.65
2023-01-30T19:56:55.412Z,8.80
2023-01-30T19:59:22.962Z,8.93
2023-01-30T20:01:46.095Z,8.37
2023-01-30T20:04:08.779Z,7.28
2023-01-30T20:06:33.793Z,8.15
2023-01-30T20:09:02.172Z,7.35
2023-01-30T20:11:25.581Z,7.55
2023-01-30T20:13:49.558Z,8.57
2023-01-30T20:16:15.743Z,10.07
2023-01-30T20:18:40.137Z,9.98
2023-01-30T20:21:10.275Z,11.65
2023-01-30T20:23:33.224Z,11.05
2023-01-30T20:25:56.259Z,11.20
2023-01-30T20:28:19.758Z,9.48
2023-01-30T20:31:13.730Z,9.43
2023-01-30T20:33:38.593Z,9.15
2023-01-30T20:36:02.509Z,10.73
2023-01-30T20:38:26.418Z,11.83
2023-01-30T20:40:49.377Z,11.45
2023-01-30T20:43:12.766Z,11.73
2023-01-30T20:45:35.638Z,11.20
2023-01-30T20:47:59.294Z,9.88
2023-01-30T20:50:22.276Z,10.00
2023-01-30T20:52:45.145Z,10.43
2023-01-30T20:55:08.617Z,11.40
2023-01-30T20:57:31.509Z,10.15
2023-01-30T20:59:54.172Z,11.48
2023-01-30T21:02:16.895Z,12.83
2023-01-30T21:04:39.815Z,8.32
2023-01-30T21:07:02.848Z,8.52
2023-01-30T21:09:25.993Z,11.75
2023-01-30T21:11:51.244Z,8.73
2023-01-30T21:14:15.093Z,8.07
2023-01-30T21:16:38.425Z,8.20
2023-01-30T21:19:05.554Z,7.18
2023-01-30T21:21:32.947Z,7.53
2023-01-30T21:24:15.041Z,7.72
2023-01-30T21:26:57.204Z,6.70
2023-01-30T21:29:40.540Z,6.50
2023-01-30T21:32:03.295Z,8.02
2023-01-30T21:34:26.291Z,7.78
2023-01-30T21:37:09.277Z,6.30
2023-01-30T21:39:50.881Z,6.77
2023-01-30T21:42:31.714Z,6.43
2023-01-30T21:44:54.285Z,6.60
2023-01-30T21:47:17.012Z,7.78
2023-01-30T21:49:44.016Z,9.32
2023-01-30T21:52:06.517Z,6.97
2023-01-30T21:54:29.245Z,6.20
2023-01-30T21:56:52.049Z,7.25
2023-01-30T21:59:14.963Z,7.18
2023-01-30T22:01:38.800Z,6.57
2023-01-30T22:04:03.212Z,5.80
2023-01-30T22:06:25.890Z,7.75
2023-01-30T22:08:48.997Z,6.20
2023-01-30T22:11:14.836Z,6.07
2023-01-30T22:13:57.138Z,5.97
2023-01-30T22:16:39.081Z,5.10
2023-01-30T22:19:20.649Z,8.82
2023-01-30T22:22:02.864Z,7.20
2023-01-30T22:24:25.536Z,6.75
2023-01-30T22:26:48.163Z,6.30
2023-01-30T22:29:11.035Z,6.20
2023-01-30T22:31:36.506Z,6.55
2023-01-30T22:34:17.791Z,8.45
2023-01-30T22:36:59.144Z,7.00
2023-01-30T22:39:41.566Z,10.48
2023-01-30T22:42:04.414Z,8.87
2023-01-30T22:44:26.878Z,10.60
2023-01-30T22:46:51.382Z,11.10
2023-01-30T22:49:14.535Z,5.70
2023-01-30T22:51:39.957Z,6.00
2023-01-30T22:54:09.234Z,7.00
2023-01-30T22:56:36.659Z,5.47
2023-01-30T22:58:59.707Z,6.68
2023-01-30T23:01:29.418Z,6.43
2023-01-30T23:04:16.736Z,6.40
2023-01-30T23:06:40.510Z,5.17
2023-01-30T23:09:05.225Z,5.55
2023-01-30T23:12:09.635Z,7.03
2023-01-30T23:14:51.211Z,6.82
2023-01-30T23:17:51.726Z,6.43
2023-01-30T23:20:33.173Z,4.97
2023-01-30T23:23:14.520Z,6.07
2023-01-30T23:25:55.855Z,5.60
2023-01-30T23:28:38.241Z,7.80
2023-01-30T23:31:24.673Z,6.10
2023-01-30T23:33:47.834Z,5.27
2023-01-30T23:36:12.892Z,5.43
2023-01-30T23:38:36.461Z,6.55
2023-01-30T23:41:07.876Z,4.80
2023-01-30T23:43:31.017Z,5.90
2023-01-30T23:45:55.952Z,5.50
2023-01-30T23:48:18.606Z,5.97
2023-01-30T23:50:42.234Z,6.45
2023-01-30T23:53:25.476Z,6.20
2023-01-30T23:55:52.237Z,6.50
2023-01-30T23:58:14.739Z,5.47
